Terminal Aerodrome Forecast
Issued by NWS Portland, ME

Home | Current Version | Previous Version | Text Only | Print | Product List | Glossary On
Versions: 1 2 3 4 5 6 7 8 9 10 11 12 13 14 15 16 17 18 19 20 21 22 23
000
FTUS41 KGYX 231720
TAFCON
TAF
KCON 231720Z 2318/2418 28011G18KT P6SM SKC
     FM240000 00000KT P6SM SKC
     FM241100 00000KT 1/2SM FG OVC001
     FM241300 10005KT P6SM BKN250
     FM241600 15006KT P6SM SKC=

USA.gov is the U.S. government's official web portal to all federal, state and local government web resources and services.